createdAt,value
2023-04-19T00:00:09.758Z,96780.84
2023-04-19T00:02:38.232Z,96777.13
2023-04-19T00:05:06.928Z,96777.84
2023-04-19T00:07:34.198Z,96774.06
2023-04-19T00:10:01.082Z,96773.13
2023-04-19T00:12:27.850Z,96775.06
2023-04-19T00:14:54.776Z,96766.50
2023-04-19T00:17:21.702Z,96762.91
2023-04-19T00:19:48.579Z,96762.63
2023-04-19T00:22:15.775Z,96765.53
2023-04-19T00:24:42.553Z,96762.34
2023-04-19T00:27:09.296Z,96767.31
2023-04-19T00:29:36.682Z,96763.72
2023-04-19T00:32:06.354Z,96763.97
2023-04-19T00:34:33.673Z,96758.19
2023-04-19T00:37:00.921Z,96761.09
2023-04-19T00:39:28.319Z,96751.56
2023-04-19T00:41:57.982Z,96753.22
2023-04-19T00:44:25.982Z,96755.00
2023-04-19T00:46:54.160Z,96752.94
2023-04-19T00:49:23.429Z,96750.97
2023-04-19T00:51:53.847Z,96752.63
2023-04-19T00:54:21.058Z,96747.09
2023-04-19T00:56:48.119Z,96750.38
2023-04-19T00:59:16.362Z,96757.00
2023-04-19T01:01:44.176Z,96750.09
2023-04-19T01:04:11.707Z,96749.22
2023-04-19T01:06:47.492Z,96753.66
2023-04-19T01:09:14.694Z,96752.91
2023-04-19T01:11:43.434Z,96754.31
2023-04-19T01:14:11.251Z,96753.34
2023-04-19T01:16:39.452Z,96752.81
2023-04-19T01:19:07.038Z,96747.56
2023-04-19T01:21:34.429Z,96741.97
2023-04-19T01:24:01.799Z,96744.88
2023-04-19T01:26:29.599Z,96738.81
2023-04-19T01:28:56.660Z,96738.81
2023-04-19T01:31:24.102Z,96736.72
2023-04-19T01:33:50.892Z,96738.97
2023-04-19T01:36:18.435Z,96733.84
2023-04-19T01:38:51.219Z,96731.91
2023-04-19T01:41:18.891Z,96732.19
2023-04-19T01:43:49.365Z,96725.94
2023-04-19T01:46:16.554Z,96728.56
2023-04-19T01:48:43.915Z,96728.00
2023-04-19T01:51:11.142Z,96724.03
2023-04-19T01:53:38.400Z,96720.13
2023-04-19T01:56:06.511Z,96720.41
2023-04-19T01:58:33.781Z,96717.94
2023-04-19T02:01:01.136Z,96723.31
2023-04-19T02:03:29.237Z,96723.03
2023-04-19T02:05:57.712Z,96721.09
2023-04-19T02:08:27.951Z,96719.44
2023-04-19T02:10:55.552Z,96719.00
2023-04-19T02:13:22.984Z,96716.22
2023-04-19T02:15:51.151Z,96716.38
2023-04-19T02:18:18.770Z,96717.88
2023-04-19T02:20:47.132Z,96718.56
2023-04-19T02:23:14.515Z,96716.63
2023-04-19T02:25:42.426Z,96721.56
2023-04-19T02:28:11.313Z,96716.47
2023-04-19T02:30:38.494Z,96711.06
2023-04-19T02:33:06.264Z,96717.66
2023-04-19T02:35:34.186Z,96713.09
2023-04-19T02:38:02.106Z,96706.88
2023-04-19T02:40:29.647Z,96711.06
2023-04-19T02:42:58.645Z,96709.13
2023-04-19T02:51:09.044Z,96710.88
2023-04-19T02:53:36.908Z,96705.91
2023-04-19T02:56:07.826Z,96706.91
2023-04-19T02:59:05.635Z,96707.63
2023-04-19T03:01:40.233Z,96711.09
2023-04-19T03:04:15.037Z,96713.47
2023-04-19T03:06:51.918Z,96708.84
2023-04-19T03:09:22.826Z,96714.38
2023-04-19T03:11:55.056Z,96710.22
2023-04-19T03:14:24.545Z,96712.47
2023-04-19T03:16:52.636Z,96716.34
2023-04-19T03:19:20.557Z,96713.34
2023-04-19T03:21:50.856Z,96708.50
2023-04-19T03:24:29.315Z,96715.09
2023-04-19T03:27:05.928Z,96713.34
2023-04-19T03:29:33.642Z,96713.34
2023-04-19T03:32:01.472Z,96721.31
2023-04-19T03:34:28.122Z,96717.44
2023-04-19T03:36:58.213Z,96720.22
2023-04-19T03:39:24.915Z,96720.22
2023-04-19T03:41:51.650Z,96726.03
2023-04-19T03:44:18.557Z,96732.66
2023-04-19T03:46:46.711Z,96721.22
2023-04-19T03:49:13.702Z,96721.75
2023-04-19T03:51:44.397Z,96719.69
2023-04-19T03:54:21.334Z,96726.56
2023-04-19T04:00:00.185Z,96721.75
2023-04-19T04:03:54.771Z,96727.56
2023-04-19T04:08:18.117Z,96735.97
2023-04-19T04:10:49.037Z,96732.94
2023-04-19T04:13:26.803Z,96735.72
2023-04-19T04:16:15.583Z,96734.06
2023-04-19T04:22:11.744Z,96728.53
2023-04-19T04:24:42.055Z,96734.75
2023-04-19T04:27:23.625Z,96732.94
2023-04-19T04:30:08.142Z,96737.91
2023-04-19T04:32:59.042Z,96731.28
2023-04-19T04:35:30.134Z,96740.69
2023-04-19T04:37:56.956Z,96739.00
2023-04-19T04:40:23.903Z,96732.09
2023-04-19T04:42:53.144Z,96739.25
2023-04-19T04:45:20.089Z,96739.53
2023-04-19T04:47:46.974Z,96738.16
2023-04-19T04:50:13.761Z,96748.38
2023-04-19T04:52:40.918Z,96748.78
2023-04-19T04:55:08.505Z,96741.19
2023-04-19T04:57:35.626Z,96742.81
2023-04-19T05:00:03.077Z,96738.56
2023-04-19T05:02:30.536Z,96740.19
2023-04-19T05:04:57.843Z,96740.50
2023-04-19T05:07:24.692Z,96745.31
2023-04-19T05:09:52.198Z,96745.59
2023-04-19T05:12:22.135Z,96750.31
2023-04-19T05:14:49.735Z,96745.34
2023-04-19T05:17:17.937Z,96744.09
2023-04-19T05:19:45.572Z,96745.44
2023-04-19T05:22:13.248Z,96750.03
2023-04-19T05:24:42.410Z,96750.56
2023-04-19T05:27:13.313Z,96753.06
2023-04-19T05:29:40.660Z,96753.31
2023-04-19T05:32:08.644Z,96745.16
2023-04-19T05:34:36.655Z,96759.16
2023-04-19T05:37:04.318Z,96762.75
2023-04-19T05:39:31.443Z,96757.47
2023-04-19T05:41:58.867Z,96762.06
2023-04-19T05:44:26.203Z,96759.44
2023-04-19T05:46:56.519Z,96765.78
2023-04-19T05:49:24.022Z,96763.59
2023-04-19T05:51:51.652Z,96760.28
2023-04-19T05:54:19.658Z,96760.97
2023-04-19T05:56:47.102Z,96767.22
2023-04-19T05:59:14.913Z,96761.13
2023-04-19T06:01:42.248Z,96765.13
2023-04-19T06:04:09.799Z,96768.75
2023-04-19T06:06:38.677Z,96757.41
2023-04-19T06:09:13.586Z,96760.72
2023-04-19T06:11:49.961Z,96771.63
2023-04-19T06:14:19.305Z,96776.88
2023-04-19T06:16:47.049Z,96776.34
2023-04-19T06:19:14.891Z,96778.81
2023-04-19T06:21:42.126Z,96785.75
2023-04-19T06:24:13.105Z,96782.97
2023-04-19T06:26:41.250Z,96787.09
2023-04-19T06:29:08.811Z,96797.31
2023-04-19T06:31:36.160Z,96790.97
2023-04-19T06:34:03.337Z,96792.94
2023-04-19T06:36:31.368Z,96786.31
2023-04-19T06:38:58.343Z,96801.50
2023-04-19T06:41:26.544Z,96793.47
2023-04-19T06:43:53.851Z,96796.78
2023-04-19T06:46:21.680Z,96796.22
2023-04-19T06:48:48.956Z,96805.63
2023-04-19T06:51:16.395Z,96804.66
2023-04-19T06:53:45.319Z,96803.69
2023-04-19T06:56:13.977Z,96809.47
2023-04-19T06:58:41.950Z,96814.72
2023-04-19T07:01:09.416Z,96811.69
2023-04-19T07:03:37.284Z,96808.66
2023-04-19T07:06:04.682Z,96820.53
2023-04-19T07:08:46.302Z,96823.59
2023-04-19T07:11:16.078Z,96812.78
2023-04-19T07:13:43.061Z,96820.38
2023-04-19T07:16:09.793Z,96825.91
2023-04-19T07:18:37.623Z,96818.69
2023-04-19T07:21:04.903Z,96822.13
2023-04-19T07:23:33.359Z,96819.09
2023-04-19T07:26:00.621Z,96825.56
2023-04-19T07:28:30.300Z,96813.53
2023-04-19T07:30:58.211Z,96830.94
2023-04-19T07:33:28.025Z,96831.75
2023-04-19T07:35:57.301Z,96830.34
2023-04-19T07:38:26.056Z,96829.50
2023-04-19T07:40:55.036Z,96829.22
2023-04-19T07:43:23.017Z,96834.09
2023-04-19T07:45:51.091Z,96841.16
2023-04-19T07:48:18.660Z,96829.13
2023-04-19T07:50:46.066Z,96834.19
2023-04-19T07:53:13.197Z,96826.47
2023-04-19T07:55:40.548Z,96825.50
2023-04-19T07:58:08.133Z,96830.28
2023-04-19T08:00:37.123Z,96828.13
2023-04-19T08:03:05.079Z,96830.16
2023-04-19T08:05:36.696Z,96828.72
2023-04-19T08:08:06.598Z,96822.63
2023-04-19T08:10:37.245Z,96827.44
2023-04-19T08:13:06.592Z,96823.75
2023-04-19T08:18:08.698Z,96828.59
2023-04-19T08:20:37.115Z,96827.13
2023-04-19T08:23:18.069Z,96825.47
2023-04-19T08:25:49.088Z,96829.06
2023-04-19T08:28:17.462Z,96828.63
2023-04-19T08:30:44.928Z,96830.44
2023-04-19T08:33:12.432Z,96827.91
2023-04-19T08:35:43.202Z,96820.69
2023-04-19T08:38:16.783Z,96820.69
2023-04-19T08:40:55.278Z,96823.19
2023-04-19T08:43:24.934Z,96830.16
2023-04-19T08:45:54.906Z,96829.88
2023-04-19T08:48:24.103Z,96826.69
2023-04-19T08:51:07.808Z,96827.22
2023-04-19T08:53:36.740Z,96825.97
2023-04-19T08:56:17.381Z,96818.19
2023-04-19T09:01:33.072Z,96820.66
2023-04-19T09:04:34.464Z,96822.34
2023-04-19T09:06:59.720Z,96819.91
2023-04-19T09:09:37.218Z,96823.31
2023-04-19T09:12:20.681Z,96822.72
2023-04-19T09:17:18.171Z,96820.88
2023-04-19T09:19:52.667Z,96829.81
2023-04-19T09:22:19.845Z,96825.63
2023-04-19T09:27:26.709Z,96824.38
2023-04-19T09:29:58.974Z,96828.31
2023-04-19T09:32:31.395Z,96828.31
2023-04-19T09:35:07.978Z,96829.34
2023-04-19T09:37:57.452Z,96819.41
2023-04-19T09:40:25.282Z,96823.53
2023-04-19T09:45:30.578Z,96821.56
2023-04-19T09:48:03.947Z,96822.00
2023-04-19T09:50:50.314Z,96807.28
2023-04-19T09:53:23.183Z,96797.13
2023-04-19T09:56:00.195Z,96798.34
2023-04-19T09:58:34.380Z,96798.69
2023-04-19T10:01:16.318Z,96799.19
2023-04-19T10:03:51.283Z,96798.56
2023-04-19T10:09:03.828Z,96795.22
2023-04-19T10:11:39.277Z,96793.72
2023-04-19T10:14:09.101Z,96804.44
2023-04-19T10:16:41.342Z,96794.91
2023-04-19T10:19:15.878Z,96788.31
2023-04-19T10:21:48.316Z,96788.50
2023-04-19T10:24:35.519Z,96787.69
2023-04-19T10:27:08.671Z,96785.91
2023-04-19T10:30:01.454Z,96785.72
2023-04-19T10:32:42.693Z,96780.78
2023-04-19T10:35:21.290Z,96783.59
2023-04-19T10:38:21.801Z,96787.91
2023-04-19T10:40:52.318Z,96773.69
2023-04-19T10:43:21.779Z,96775.03
2023-04-19T10:45:49.375Z,96774.84
2023-04-19T10:48:33.665Z,96776.81
2023-04-19T10:51:15.117Z,96776.50
2023-04-19T10:53:56.037Z,96778.81
2023-04-19T10:57:00.826Z,96767.25
2023-04-19T10:59:30.551Z,96769.56
2023-04-19T11:02:19.258Z,96771.56
2023-04-19T11:04:50.078Z,96764.44
2023-04-19T11:07:25.414Z,96765.25
2023-04-19T11:10:15.919Z,96761.97
2023-04-19T11:12:44.458Z,96765.63
2023-04-19T11:15:12.498Z,96757.00
2023-04-19T11:17:40.217Z,96755.38
2023-04-19T11:20:08.795Z,96753.03
2023-04-19T11:22:41.216Z,96758.31
2023-04-19T11:25:22.245Z,96750.06
2023-04-19T11:27:51.348Z,96747.09
2023-04-19T11:30:23.429Z,96757.66
2023-04-19T11:32:53.822Z,96758.97
2023-04-19T11:35:23.654Z,96752.69
2023-04-19T11:37:51.698Z,96760.97
2023-04-19T11:40:23.231Z,96751.38
2023-04-19T11:43:02.962Z,96743.47
2023-04-19T11:45:39.952Z,96744.31
2023-04-19T11:48:16.130Z,96747.44
2023-04-19T11:50:47.838Z,96744.44
2023-04-19T11:53:22.532Z,96738.81
2023-04-19T11:56:19.537Z,96740.75
2023-04-19T12:02:12.511Z,96732.03
2023-04-19T12:04:47.801Z,96733.53
2023-04-19T12:07:20.269Z,96736.03
2023-04-19T12:09:51.781Z,96732.72
2023-04-19T12:12:34.878Z,96731.44
2023-04-19T12:15:02.694Z,96734.91
2023-04-19T12:17:44.774Z,96724.66
2023-04-19T12:20:42.047Z,96722.66
2023-04-19T12:23:11.632Z,96717.06
2023-04-19T12:25:41.568Z,96718.06
2023-04-19T12:28:09.738Z,96712.44
2023-04-19T12:30:38.034Z,96705.84
2023-04-19T12:33:08.255Z,96704.69
2023-04-19T12:35:36.627Z,96698.59
2023-04-19T12:38:04.082Z,96697.91
2023-04-19T12:40:31.347Z,96693.28
2023-04-19T12:43:01.398Z,96696.22
2023-04-19T12:45:28.872Z,96698.88
2023-04-19T12:48:00.922Z,96696.22
2023-04-19T12:50:28.086Z,96691.97
2023-04-19T12:52:54.981Z,96698.88
2023-04-19T12:55:22.567Z,96693.94
2023-04-19T12:57:49.657Z,96698.22
2023-04-19T13:00:17.752Z,96698.09
2023-04-19T13:02:49.307Z,96692.63
2023-04-19T13:05:17.012Z,96703.88
2023-04-19T13:07:48.123Z,96698.91
2023-04-19T13:10:14.965Z,96691.97
2023-04-19T13:12:47.884Z,96697.59
2023-04-19T13:15:22.378Z,96696.25
2023-04-19T13:17:49.977Z,96696.25
2023-04-19T13:20:22.220Z,96696.25
2023-04-19T13:22:49.359Z,96680.22
2023-04-19T13:25:16.117Z,96675.94
2023-04-19T13:27:43.425Z,96693.94
2023-04-19T13:30:11.267Z,96693.28
2023-04-19T13:32:38.947Z,96692.41
2023-04-19T13:35:10.463Z,96678.72
2023-04-19T13:37:37.823Z,96685.94
2023-04-19T13:40:19.472Z,96679.16
2023-04-19T13:42:58.126Z,96665.75
2023-04-19T13:45:29.776Z,96664.31
2023-04-19T13:47:57.004Z,96665.06
2023-04-19T13:50:23.988Z,96672.03
2023-04-19T13:52:50.919Z,96670.91
2023-04-19T13:55:21.502Z,96659.19
2023-04-19T13:57:49.159Z,96668.25
2023-04-19T14:00:17.167Z,96666.81
2023-04-19T14:02:46.255Z,96666.72
2023-04-19T14:05:18.110Z,96669.78
2023-04-19T14:07:52.097Z,96653.94
2023-04-19T14:10:20.317Z,96662.00
2023-04-19T14:12:49.972Z,96661.69
2023-04-19T14:15:24.236Z,96650.97
2023-04-19T14:17:52.581Z,96644.66
2023-04-19T14:20:27.962Z,96644.63
2023-04-19T14:22:56.902Z,96645.53
2023-04-19T14:25:23.957Z,96637.19
2023-04-19T14:27:51.734Z,96635.91
2023-04-19T14:30:19.205Z,96640.19
2023-04-19T14:32:56.615Z,96638.66
2023-04-19T14:35:23.769Z,96640.06
2023-04-19T14:37:50.600Z,96642.50
2023-04-19T14:40:20.916Z,96637.09
2023-04-19T14:42:49.100Z,96640.25
2023-04-19T14:45:16.565Z,96641.09
2023-04-19T14:47:49.916Z,96653.13
2023-04-19T14:53:13.584Z,96648.47
2023-04-19T14:58:29.957Z,96651.72
2023-04-19T15:01:01.368Z,96647.69
2023-04-19T15:03:29.649Z,96654.72
2023-04-19T15:05:57.578Z,96649.34
2023-04-19T15:08:30.786Z,96655.44
2023-04-19T15:10:58.122Z,96656.50
2023-04-19T15:13:37.976Z,96658.22
2023-04-19T15:16:09.337Z,96656.78
2023-04-19T15:18:40.306Z,96655.50
2023-04-19T15:21:09.522Z,96657.97
2023-04-19T15:23:36.966Z,96654.00
2023-04-19T15:26:07.854Z,96650.63
2023-04-19T15:28:39.054Z,96654.44
2023-04-19T15:31:08.219Z,96653.44
2023-04-19T15:33:36.873Z,96650.13
2023-04-19T15:36:04.851Z,96641.38
2023-04-19T15:38:32.114Z,96649.50
2023-04-19T15:41:02.630Z,96640.31
2023-04-19T15:43:30.109Z,96639.78
2023-04-19T15:46:07.273Z,96644.56
2023-04-19T15:48:48.018Z,96641.91
2023-04-19T15:51:34.630Z,96638.84
2023-04-19T15:54:01.985Z,96647.66
2023-04-19T15:56:29.195Z,96652.84
2023-04-19T15:58:56.518Z,96643.91
2023-04-19T16:01:24.247Z,96645.44
2023-04-19T16:03:53.160Z,96651.69
2023-04-19T16:06:24.125Z,96649.09
2023-04-19T16:08:54.150Z,96635.19
2023-04-19T16:11:21.568Z,96639.28
2023-04-19T16:16:43.915Z,96644.38
2023-04-19T16:19:11.272Z,96643.94
2023-04-19T16:21:40.996Z,96646.81
2023-04-19T16:24:08.579Z,96650.66
2023-04-19T16:26:35.655Z,96644.25
2023-04-19T16:29:03.552Z,96656.56
2023-04-19T16:31:44.606Z,96648.34
2023-04-19T16:34:12.320Z,96653.97
2023-04-19T16:36:40.812Z,96635.88
2023-04-19T16:39:08.530Z,96653.69
2023-04-19T16:41:35.852Z,96658.66
2023-04-19T16:44:04.918Z,96660.16
2023-04-19T16:46:32.589Z,96656.66
2023-04-19T16:49:00.268Z,96660.47
2023-04-19T16:51:30.238Z,96668.03
2023-04-19T16:53:57.848Z,96673.28
2023-04-19T16:56:25.156Z,96676.59
2023-04-19T16:58:56.275Z,96686.53
2023-04-19T17:01:24.220Z,96681.06
2023-04-19T17:03:51.309Z,96681.53
2023-04-19T17:06:18.536Z,96683.09
2023-04-19T17:08:45.686Z,96691.13
2023-04-19T17:11:12.726Z,96692.38
2023-04-19T17:13:40.575Z,96694.28
2023-04-19T17:16:08.296Z,96701.63
2023-04-19T17:18:35.559Z,96703.88
2023-04-19T17:21:06.765Z,96705.09
2023-04-19T17:23:34.674Z,96718.50
2023-04-19T17:26:01.495Z,96728.28
2023-04-19T17:28:28.564Z,96728.16
2023-04-19T17:30:55.658Z,96732.50
2023-04-19T17:33:23.061Z,96738.47
2023-04-19T17:35:51.241Z,96740.03
2023-04-19T17:38:20.108Z,96743.78
2023-04-19T17:40:47.773Z,96742.97
2023-04-19T17:43:20.723Z,96757.09
2023-04-19T17:45:48.129Z,96761.66
2023-04-19T17:48:15.406Z,96756.41
2023-04-19T17:50:42.581Z,96755.75
2023-04-19T17:53:09.926Z,96768.06
2023-04-19T17:55:40.216Z,96764.44
2023-04-19T17:58:07.905Z,96770.75
2023-04-19T18:00:45.620Z,96767.03
2023-04-19T18:03:16.670Z,96780.75
2023-04-19T18:05:44.259Z,96776.09
2023-04-19T18:08:13.640Z,96780.00
2023-04-19T18:10:41.017Z,96790.91
2023-04-19T18:13:11.035Z,96787.19
2023-04-19T18:15:38.084Z,96802.91
2023-04-19T18:18:08.443Z,96808.03
2023-04-19T18:20:35.869Z,96805.09
2023-04-19T18:23:03.804Z,96812.75
2023-04-19T18:25:53.613Z,96817.31
2023-04-19T18:28:37.004Z,96812.44
2023-04-19T18:31:23.130Z,96812.91
2023-04-19T18:33:53.761Z,96813.16
2023-04-19T18:36:29.414Z,96815.91
2023-04-19T18:38:59.036Z,96817.63
2023-04-19T18:42:01.387Z,96825.94
2023-04-19T18:44:52.872Z,96816.00
2023-04-19T18:47:44.679Z,96822.34
2023-04-19T18:53:36.771Z,96823.75
2023-04-19T18:57:18.553Z,96829.56
2023-04-19T18:59:26.092Z,96832.47
2023-04-19T19:01:57.218Z,96827.38
2023-04-19T19:04:48.160Z,96825.69
2023-04-19T19:12:43.218Z,96825.47
2023-04-19T19:15:14.457Z,96836.81
2023-04-19T19:17:41.997Z,96836.25
2023-04-19T19:20:11.363Z,96836.53
2023-04-19T19:22:49.147Z,96837.09
2023-04-19T19:25:17.755Z,96838.06
2023-04-19T19:28:35.717Z,96834.19
2023-04-19T19:31:02.407Z,96838.75
2023-04-19T19:33:34.539Z,96834.06
2023-04-19T19:36:02.499Z,96835.84
2023-04-19T19:38:33.047Z,96830.47
2023-04-19T19:41:49.011Z,96830.19
2023-04-19T19:44:01.259Z,96834.06
2023-04-19T19:46:33.478Z,96828.97
2023-04-19T19:49:12.966Z,96823.28
2023-04-19T19:51:57.761Z,96830.06
2023-04-19T19:54:55.745Z,96834.63
2023-04-19T20:00:28.036Z,96832.44
2023-04-19T20:03:06.470Z,96828.44
2023-04-19T20:05:40.476Z,96832.56
2023-04-19T20:08:12.742Z,96829.94
2023-04-19T20:10:43.913Z,96826.31
2023-04-19T20:13:17.128Z,96832.28
2023-04-19T20:16:11.234Z,96834.50
2023-04-19T20:18:51.651Z,96838.38
2023-04-19T20:21:39.567Z,96837.13
2023-04-19T20:24:13.820Z,96840.03
2023-04-19T20:26:59.492Z,96850.91
2023-04-19T20:30:01.157Z,96843.75
2023-04-19T20:32:34.926Z,96852.56
2023-04-19T20:35:25.420Z,96860.59
2023-04-19T20:37:53.020Z,96857.28
2023-04-19T20:40:23.607Z,96844.84
2023-04-19T20:42:53.542Z,96839.59
2023-04-19T20:45:21.483Z,96834.88
2023-04-19T20:47:49.193Z,96822.31
2023-04-19T20:50:16.649Z,96817.50
2023-04-19T20:52:46.907Z,96821.22
2023-04-19T20:55:15.470Z,96818.06
2023-04-19T20:58:15.058Z,96825.09
2023-04-19T21:00:53.186Z,96815.97
2023-04-19T21:07:09.872Z,96826.06
2023-04-19T21:09:46.518Z,96825.25
2023-04-19T21:12:20.368Z,96816.09
2023-04-19T21:17:34.276Z,96818.59
2023-04-19T21:20:05.488Z,96819.97
2023-04-19T21:22:33.092Z,96826.19
2023-04-19T21:25:48.573Z,96823.31
2023-04-19T21:28:27.272Z,96820.09
2023-04-19T21:31:07.254Z,96825.63
2023-04-19T21:33:45.579Z,96826.31
2023-04-19T21:36:14.334Z,96815.13
2023-04-19T21:38:45.000Z,96831.56
2023-04-19T21:41:12.651Z,96828.50
2023-04-19T21:43:46.562Z,96836.25
2023-04-19T21:46:49.308Z,96831.31
2023-04-19T21:49:53.440Z,96835.56
2023-04-19T21:52:40.198Z,96823.28
2023-04-19T21:55:24.036Z,96819.97
2023-04-19T21:57:53.267Z,96830.72
2023-04-19T22:00:33.561Z,96826.47
2023-04-19T22:06:19.829Z,96831.72
2023-04-19T22:09:14.054Z,96832.41
2023-04-19T22:12:24.876Z,96820.78
2023-04-19T22:15:07.698Z,96822.88
2023-04-19T22:17:40.379Z,96822.59
2023-04-19T22:20:26.337Z,96826.75
2023-04-19T22:23:20.913Z,96820.53
2023-04-19T22:26:05.128Z,96830.63
2023-04-19T22:28:40.643Z,96819.28
2023-04-19T22:31:25.980Z,96827.84
2023-04-19T22:35:22.569Z,96835.28
2023-04-19T22:36:52.842Z,96829.66
2023-04-19T22:39:20.574Z,96832.16
2023-04-19T22:42:27.916Z,96835.72
2023-04-19T22:45:01.568Z,96823.31
2023-04-19T22:47:44.940Z,96822.47
2023-04-19T22:50:39.909Z,96831.19
2023-04-19T22:53:27.968Z,96827.72
2023-04-19T22:56:52.250Z,96825.78
2023-04-19T23:00:16.438Z,96821.91
2023-04-19T23:02:53.116Z,96826.88
2023-04-19T23:05:44.744Z,96820.09
2023-04-19T23:09:52.852Z,96821.66
2023-04-19T23:11:16.200Z,96822.72
2023-04-19T23:14:20.644Z,96820.00
2023-04-19T23:19:55.317Z,96822.59
2023-04-19T23:22:28.148Z,96827.56
2023-04-19T23:31:20.763Z,96812.09
2023-04-19T23:34:01.941Z,96809.63
2023-04-19T23:36:31.845Z,96818.06
2023-04-19T23:39:02.651Z,96812.81
2023-04-19T23:41:36.579Z,96813.38
2023-04-19T23:44:05.459Z,96809.50
2023-04-19T23:46:51.098Z,96810.16
2023-04-19T23:49:45.052Z,96800.91
2023-04-19T23:56:44.581Z,96808.09
2023-04-19T23:59:43.705Z,96800.81
